createdAt,value
2023-05-06T00:00:57.900Z,0
2023-05-06T00:03:57.634Z,0.6666666666666666
2023-05-06T00:06:57.754Z,0.3333333333333333
2023-05-06T00:09:57.232Z,0
2023-05-06T00:12:57.417Z,0
2023-05-06T00:15:57.692Z,0.3333333333333333
2023-05-06T00:18:57.522Z,0
2023-05-06T00:21:57.247Z,1
2023-05-06T00:24:57.353Z,0
2023-05-06T00:27:58.082Z,0
2023-05-06T00:30:58.114Z,0
2023-05-06T00:33:56.989Z,0
2023-05-06T00:36:57.847Z,1.3333333333333333
2023-05-06T00:39:57.073Z,1
2023-05-06T00:42:57.787Z,0
2023-05-06T00:45:57.962Z,0.6666666666666666
2023-05-06T00:48:57.627Z,0
2023-05-06T00:51:57.647Z,0
2023-05-06T00:54:57.499Z,0
2023-05-06T00:57:56.834Z,0.3333333333333333
2023-05-06T01:00:57.650Z,0
2023-05-06T01:03:56.858Z,0
2023-05-06T01:06:56.944Z,0
2023-05-06T01:09:56.565Z,0
2023-05-06T01:12:57.532Z,0
2023-05-06T01:15:57.455Z,0
2023-05-06T01:18:57.193Z,0
2023-05-06T01:21:57.317Z,0.6666666666666666
2023-05-06T01:24:57.115Z,0
2023-05-06T01:27:57.385Z,0
2023-05-06T01:30:57.323Z,0
2023-05-06T01:33:57.198Z,0
2023-05-06T01:36:56.591Z,0
2023-05-06T01:39:58.076Z,0
2023-05-06T01:42:56.943Z,1
2023-05-06T01:45:57.700Z,0
2023-05-06T01:48:57.395Z,0
2023-05-06T01:51:57.129Z,0
2023-05-06T01:54:57.877Z,0
2023-05-06T01:57:57.007Z,0
2023-05-06T02:00:57.525Z,0
2023-05-06T02:03:56.950Z,0
2023-05-06T02:06:56.881Z,0
2023-05-06T02:09:57.755Z,0
2023-05-06T02:12:57.044Z,0
2023-05-06T02:15:56.943Z,0
2023-05-06T02:18:57.448Z,2.3333333333333335
2023-05-06T02:21:56.795Z,0.3333333333333333
2023-05-06T02:24:57.634Z,0
2023-05-06T02:27:57.308Z,0
2023-05-06T02:30:57.221Z,0
2023-05-06T02:33:56.712Z,0
2023-05-06T02:36:57.253Z,0
2023-05-06T02:39:57.535Z,0
2023-05-06T02:42:57.425Z,0
2023-05-06T02:45:57.170Z,0
2023-05-06T02:48:57.638Z,0
2023-05-06T02:51:56.927Z,0
2023-05-06T02:54:57.085Z,0
2023-05-06T02:57:56.997Z,0
2023-05-06T03:00:57.480Z,0.3333333333333333
2023-05-06T03:03:56.680Z,0
2023-05-06T03:06:57.205Z,0
2023-05-06T03:09:57.393Z,0
2023-05-06T03:12:57.414Z,0
2023-05-06T03:15:58.517Z,0
2023-05-06T03:18:57.688Z,0.3333333333333333
2023-05-06T03:21:57.110Z,1.3333333333333333
2023-05-06T03:24:56.807Z,0
2023-05-06T03:27:57.351Z,0
2023-05-06T03:30:57.494Z,0.3333333333333333
2023-05-06T03:33:57.377Z,1.3333333333333333
2023-05-06T03:36:57.161Z,3
2023-05-06T03:39:56.581Z,5.666666666666667
2023-05-06T03:42:57.412Z,8
2023-05-06T03:45:57.413Z,11.333333333333334
2023-05-06T03:48:57.088Z,10
2023-05-06T03:51:57.211Z,5.666666666666667
2023-05-06T03:54:57.383Z,5.666666666666667
2023-05-06T03:57:57.884Z,7.666666666666667
2023-05-06T04:00:56.840Z,11
2023-05-06T04:03:57.399Z,20.333333333333332
2023-05-06T04:06:57.603Z,50
2023-05-06T04:09:57.174Z,86
2023-05-06T04:12:56.920Z,115.66666666666667
2023-05-06T04:15:57.041Z,140.66666666666666
2023-05-06T04:18:57.865Z,168.66666666666666
2023-05-06T04:21:57.253Z,192.66666666666666
2023-05-06T04:24:57.275Z,212.33333333333334
2023-05-06T04:27:57.487Z,227.33333333333334
2023-05-06T04:30:57.143Z,257
2023-05-06T04:33:56.829Z,314.3333333333333
2023-05-06T04:36:57.188Z,409
2023-05-06T04:39:57.612Z,370.3333333333333
2023-05-06T04:42:57.553Z,380
2023-05-06T04:45:56.717Z,361.3333333333333
2023-05-06T04:48:57.407Z,394
2023-05-06T04:51:56.898Z,430.6666666666667
2023-05-06T04:54:57.655Z,427.3333333333333
2023-05-06T04:57:57.610Z,491
2023-05-06T05:00:57.826Z,515.3333333333334
2023-05-06T05:03:57.314Z,441.6666666666667
2023-05-06T05:06:57.353Z,354.6666666666667
2023-05-06T05:09:57.903Z,348
2023-05-06T05:12:57.017Z,333.6666666666667
2023-05-06T05:15:57.961Z,326
2023-05-06T05:18:57.112Z,337.6666666666667
2023-05-06T05:21:57.093Z,378.3333333333333
2023-05-06T05:24:57.728Z,487
2023-05-06T05:27:57.633Z,531
2023-05-06T05:30:58.001Z,582.6666666666666
2023-05-06T05:33:57.128Z,643
2023-05-06T05:36:57.073Z,826.6666666666666
2023-05-06T05:39:57.081Z,563.6666666666666
2023-05-06T05:42:57.766Z,648
2023-05-06T05:45:58.024Z,794.3333333333334
2023-05-06T05:48:56.789Z,800.6666666666666
2023-05-06T05:51:57.658Z,643
2023-05-06T05:54:57.123Z,555.6666666666666
2023-05-06T05:57:57.802Z,713.6666666666666
2023-05-06T06:00:58.199Z,848.3333333333334
2023-05-06T06:03:57.179Z,854
2023-05-06T06:06:57.312Z,868
2023-05-06T06:09:58.079Z,730.3333333333334
2023-05-06T06:12:56.682Z,522.6666666666666
2023-05-06T06:15:57.859Z,467
2023-05-06T06:18:57.203Z,423.6666666666667
2023-05-06T06:21:56.922Z,353.6666666666667
2023-05-06T06:24:57.688Z,571.3333333333334
2023-05-06T06:27:57.223Z,515.6666666666666
2023-05-06T06:30:57.262Z,573
2023-05-06T06:33:57.584Z,518.3333333333334
2023-05-06T06:36:56.921Z,580
2023-05-06T06:39:57.766Z,697.3333333333334
2023-05-06T06:42:57.073Z,737
2023-05-06T06:45:57.457Z,770.6666666666666
2023-05-06T06:48:57.555Z,865
2023-05-06T06:51:56.866Z,885.6666666666666
2023-05-06T06:54:57.931Z,845.6666666666666
2023-05-06T06:57:57.784Z,920
2023-05-06T07:00:57.884Z,866
2023-05-06T07:03:57.445Z,851
2023-05-06T07:06:56.956Z,918.3333333333334
2023-05-06T07:09:58.415Z,941.3333333333334
2023-05-06T07:12:56.908Z,949.3333333333334
2023-05-06T07:15:57.048Z,875
2023-05-06T07:18:57.759Z,940
2023-05-06T07:21:57.642Z,911.6666666666666
2023-05-06T07:24:57.091Z,943.3333333333334
2023-05-06T07:27:57.466Z,944.6666666666666
2023-05-06T07:30:57.343Z,868.6666666666666
2023-05-06T07:33:57.368Z,944
2023-05-06T07:36:57.162Z,917.6666666666666
2023-05-06T07:39:58.158Z,919
2023-05-06T07:42:57.682Z,879
2023-05-06T07:45:58.101Z,890
2023-05-06T07:48:57.170Z,824.6666666666666
2023-05-06T07:51:56.929Z,790
2023-05-06T07:54:57.870Z,783.3333333333334
2023-05-06T07:57:57.563Z,884.3333333333334
2023-05-06T08:00:57.800Z,902.6666666666666
2023-05-06T08:03:57.042Z,923.3333333333334
2023-05-06T08:06:57.765Z,777.6666666666666
2023-05-06T08:09:57.864Z,902.3333333333334
2023-05-06T08:12:57.740Z,874
2023-05-06T08:15:57.173Z,872.3333333333334
2023-05-06T08:18:57.681Z,682
2023-05-06T08:21:57.590Z,788
2023-05-06T08:24:57.189Z,937
2023-05-06T08:27:57.192Z,948.3333333333334
2023-05-06T08:30:57.409Z,949
2023-05-06T08:33:56.940Z,896.3333333333334
2023-05-06T08:36:57.980Z,881.3333333333334
2023-05-06T08:39:59.760Z,797.6666666666666
2023-05-06T08:42:57.854Z,821
2023-05-06T08:45:57.979Z,842.6666666666666
2023-05-06T08:48:57.723Z,881.6666666666666
2023-05-06T08:51:57.253Z,904
2023-05-06T08:54:57.164Z,901.3333333333334
2023-05-06T08:57:57.878Z,845.3333333333334
2023-05-06T09:00:57.199Z,935.3333333333334
2023-05-06T09:03:57.231Z,946.6666666666666
2023-05-06T09:06:56.942Z,943.6666666666666
2023-05-06T09:09:57.903Z,951.6666666666666
2023-05-06T09:12:57.675Z,954
2023-05-06T09:15:57.340Z,949.6666666666666
2023-05-06T09:18:57.136Z,956
2023-05-06T09:21:56.758Z,953
2023-05-06T09:24:57.790Z,952
2023-05-06T09:27:56.918Z,953.6666666666666
2023-05-06T09:30:58.414Z,954.6666666666666
2023-05-06T09:33:57.656Z,955.6666666666666
2023-05-06T09:36:57.678Z,947
2023-05-06T09:39:56.977Z,949
2023-05-06T09:42:57.590Z,948.3333333333334
2023-05-06T09:45:57.729Z,950.6666666666666
2023-05-06T09:48:58.348Z,950.6666666666666
2023-05-06T09:51:56.550Z,945.6666666666666
2023-05-06T09:54:57.337Z,958
2023-05-06T09:57:57.362Z,957.3333333333334
2023-05-06T10:00:57.284Z,954.3333333333334
2023-05-06T10:03:57.946Z,956.6666666666666
2023-05-06T10:06:57.080Z,957.6666666666666
2023-05-06T10:09:57.650Z,958.6666666666666
2023-05-06T10:12:57.114Z,956
2023-05-06T10:15:57.402Z,950.6666666666666
2023-05-06T10:18:57.168Z,947
2023-05-06T10:21:57.202Z,951.3333333333334
2023-05-06T10:24:57.396Z,954
2023-05-06T10:27:56.997Z,956.3333333333334
2023-05-06T10:30:57.684Z,957.3333333333334
2023-05-06T10:33:56.922Z,957.3333333333334
2023-05-06T10:36:57.361Z,957.3333333333334
2023-05-06T10:39:57.307Z,957.6666666666666
2023-05-06T10:42:57.735Z,956.3333333333334
2023-05-06T10:45:57.814Z,955.3333333333334
2023-05-06T10:48:57.245Z,955.3333333333334
2023-05-06T10:51:57.166Z,952
2023-05-06T10:54:57.432Z,950
2023-05-06T10:57:57.177Z,950.3333333333334
2023-05-06T11:00:58.292Z,948.6666666666666
2023-05-06T11:04:16.335Z,947.3333333333334
2023-05-06T11:06:57.149Z,946.3333333333334
2023-05-06T11:09:57.090Z,945
2023-05-06T11:12:57.360Z,948
2023-05-06T11:15:57.338Z,950.3333333333334
2023-05-06T11:18:57.201Z,952.3333333333334
2023-05-06T11:21:56.909Z,953
2023-05-06T11:24:57.109Z,952
2023-05-06T11:27:57.067Z,954.3333333333334
2023-05-06T11:30:57.651Z,953.3333333333334
2023-05-06T11:33:57.734Z,951
2023-05-06T11:36:57.645Z,948.6666666666666
2023-05-06T11:39:57.517Z,943.6666666666666
2023-05-06T11:42:57.291Z,936.6666666666666
2023-05-06T11:45:57.716Z,926
2023-05-06T11:48:56.989Z,900.6666666666666
2023-05-06T11:51:57.871Z,836
2023-05-06T11:54:57.426Z,831.6666666666666
2023-05-06T11:57:57.135Z,834.6666666666666
2023-05-06T12:00:57.381Z,863
2023-05-06T12:03:57.875Z,814.3333333333334
2023-05-06T12:06:57.389Z,763.3333333333334
2023-05-06T12:09:57.958Z,715.6666666666666
2023-05-06T12:12:57.824Z,701.3333333333334
2023-05-06T12:15:57.507Z,711
2023-05-06T12:18:57.416Z,738
2023-05-06T12:21:58.033Z,758
2023-05-06T12:24:57.957Z,790.6666666666666
2023-05-06T12:27:57.950Z,815.3333333333334
2023-05-06T12:30:57.645Z,812
2023-05-06T12:33:58.648Z,683
2023-05-06T12:36:57.527Z,632
2023-05-06T12:39:59.088Z,719
2023-05-06T12:42:57.099Z,724.6666666666666
2023-05-06T12:45:57.846Z,717.3333333333334
2023-05-06T12:48:57.396Z,636
2023-05-06T12:51:57.042Z,656.3333333333334
2023-05-06T12:54:58.003Z,694
2023-05-06T12:57:58.101Z,706.3333333333334
2023-05-06T13:00:57.349Z,795
2023-05-06T13:03:57.144Z,796.3333333333334
2023-05-06T13:06:57.209Z,713
2023-05-06T13:09:57.094Z,779.3333333333334
2023-05-06T13:12:57.209Z,774
2023-05-06T13:15:57.503Z,668.3333333333334
2023-05-06T13:18:57.006Z,664.3333333333334
2023-05-06T13:21:57.701Z,665.3333333333334
2023-05-06T13:24:57.621Z,710.6666666666666
2023-05-06T13:27:57.977Z,762.3333333333334
2023-05-06T13:30:58.119Z,710.3333333333334
2023-05-06T13:33:57.598Z,805
2023-05-06T13:36:57.159Z,826.6666666666666
2023-05-06T13:39:57.495Z,867
2023-05-06T13:42:57.991Z,927
2023-05-06T13:45:57.634Z,902
2023-05-06T13:48:57.681Z,933
2023-05-06T13:51:57.193Z,927.3333333333334
2023-05-06T13:54:57.037Z,934.6666666666666
2023-05-06T13:57:56.980Z,930
2023-05-06T14:00:57.159Z,936
2023-05-06T14:03:56.921Z,928.3333333333334
2023-05-06T14:06:57.832Z,892
2023-05-06T14:09:56.925Z,852
2023-05-06T14:12:57.183Z,890.3333333333334
2023-05-06T14:15:58.247Z,879.6666666666666
2023-05-06T14:18:57.040Z,889.3333333333334
2023-05-06T14:21:57.594Z,905.6666666666666
2023-05-06T14:24:57.751Z,908
2023-05-06T14:27:56.907Z,840.3333333333334
2023-05-06T14:30:57.614Z,810.6666666666666
2023-05-06T14:33:57.551Z,846.6666666666666
2023-05-06T14:36:57.672Z,789.6666666666666
2023-05-06T14:39:57.188Z,708
2023-05-06T14:42:57.014Z,647.6666666666666
2023-05-06T14:45:57.641Z,622.6666666666666
2023-05-06T14:48:57.262Z,701.6666666666666
2023-05-06T14:51:57.334Z,670
2023-05-06T14:54:57.973Z,652.6666666666666
2023-05-06T14:57:57.291Z,639.6666666666666
2023-05-06T15:00:58.380Z,633.3333333333334
2023-05-06T15:03:57.988Z,638.6666666666666
2023-05-06T15:06:57.588Z,629.3333333333334
2023-05-06T15:09:57.336Z,652
2023-05-06T15:12:58.053Z,627
2023-05-06T15:15:57.149Z,616.6666666666666
2023-05-06T15:18:57.609Z,605.6666666666666
2023-05-06T15:21:57.937Z,574.3333333333334
2023-05-06T15:24:57.335Z,580
2023-05-06T15:27:57.414Z,530.3333333333334
2023-05-06T15:30:57.857Z,572
2023-05-06T15:33:59.560Z,587
2023-05-06T15:36:56.986Z,593.6666666666666
2023-05-06T15:39:57.516Z,564.6666666666666
2023-05-06T15:42:57.448Z,531.6666666666666
2023-05-06T15:45:59.575Z,501.3333333333333
2023-05-06T15:49:09.029Z,460.3333333333333
2023-05-06T15:52:00.543Z,430
2023-05-06T15:54:59.515Z,442.6666666666667
2023-05-06T15:57:59.840Z,449
2023-05-06T16:00:57.387Z,451.6666666666667
2023-05-06T16:03:57.151Z,444
2023-05-06T16:06:57.652Z,467.3333333333333
2023-05-06T16:09:57.637Z,475.3333333333333
2023-05-06T16:12:57.973Z,527
2023-05-06T16:15:59.322Z,528
2023-05-06T16:18:58.593Z,538.3333333333334
2023-05-06T16:21:57.064Z,510.3333333333333
2023-05-06T16:24:57.438Z,505
2023-05-06T16:27:58.011Z,498.3333333333333
2023-05-06T16:30:56.886Z,478.6666666666667
2023-05-06T16:33:57.899Z,458
2023-05-06T16:36:57.078Z,437.6666666666667
2023-05-06T16:39:57.350Z,434
2023-05-06T16:42:57.162Z,436.6666666666667
2023-05-06T16:45:57.310Z,437.6666666666667
2023-05-06T16:48:57.640Z,426
2023-05-06T16:51:57.539Z,434
2023-05-06T16:54:57.159Z,439.6666666666667
2023-05-06T16:57:56.649Z,447.6666666666667
2023-05-06T17:00:57.193Z,444.3333333333333
2023-05-06T17:03:57.520Z,444
2023-05-06T17:06:56.880Z,433.3333333333333
2023-05-06T17:09:57.138Z,408.6666666666667
2023-05-06T17:12:57.591Z,387.6666666666667
2023-05-06T17:15:57.652Z,352.6666666666667
2023-05-06T17:18:58.210Z,330.3333333333333
2023-05-06T17:21:57.251Z,319.3333333333333
2023-05-06T17:24:57.193Z,309
2023-05-06T17:27:57.035Z,300
2023-05-06T17:30:57.880Z,289
2023-05-06T17:33:57.224Z,276.6666666666667
2023-05-06T17:36:57.672Z,265.3333333333333
2023-05-06T17:39:57.172Z,250.33333333333334
2023-05-06T17:42:57.846Z,240.33333333333334
2023-05-06T17:45:57.277Z,233.66666666666666
2023-05-06T17:48:57.135Z,226.33333333333334
2023-05-06T17:51:59.385Z,213.33333333333334
2023-05-06T17:55:11.289Z,193.33333333333334
2023-05-06T17:57:57.120Z,175
2023-05-06T18:00:57.827Z,159
2023-05-06T18:03:57.044Z,144.33333333333334
2023-05-06T18:06:57.655Z,132.33333333333334
2023-05-06T18:09:57.519Z,122.33333333333333
2023-05-06T18:12:57.825Z,111.66666666666667
2023-05-06T18:15:57.688Z,101.66666666666667
2023-05-06T18:18:57.050Z,89.33333333333333
2023-05-06T18:21:57.124Z,78
2023-05-06T18:24:57.389Z,65
2023-05-06T18:27:57.399Z,52
2023-05-06T18:30:57.772Z,40
2023-05-06T18:33:57.241Z,29.333333333333332
2023-05-06T18:36:57.523Z,20.333333333333332
2023-05-06T18:39:57.010Z,15.666666666666666
2023-05-06T18:42:57.142Z,13.666666666666666
2023-05-06T18:45:58.121Z,9.333333333333334
2023-05-06T18:48:58.088Z,7.666666666666667
2023-05-06T18:51:56.963Z,5
2023-05-06T18:54:57.117Z,3
2023-05-06T18:57:57.353Z,1
2023-05-06T19:01:26.300Z,1
2023-05-06T19:03:58.042Z,0.3333333333333333
2023-05-06T19:06:57.785Z,0
2023-05-06T19:09:58.014Z,1
2023-05-06T19:12:57.358Z,0
2023-05-06T19:15:57.920Z,0
2023-05-06T19:18:58.025Z,0
2023-05-06T19:21:57.779Z,0
2023-05-06T19:24:57.542Z,0
2023-05-06T19:27:58.130Z,0
2023-05-06T19:30:56.770Z,0
2023-05-06T19:33:57.771Z,0
2023-05-06T19:36:58.170Z,0
2023-05-06T19:39:57.589Z,0
2023-05-06T19:42:57.342Z,0
2023-05-06T19:45:57.254Z,0.3333333333333333
2023-05-06T19:48:56.994Z,1
2023-05-06T19:51:57.149Z,0
2023-05-06T19:54:57.107Z,0.3333333333333333
2023-05-06T19:57:56.799Z,0
2023-05-06T20:00:58.122Z,0
2023-05-06T20:03:57.578Z,0
2023-05-06T20:06:57.504Z,0
2023-05-06T20:09:57.324Z,0
2023-05-06T20:12:57.969Z,0
2023-05-06T20:15:57.653Z,0
2023-05-06T20:18:57.305Z,0
2023-05-06T20:21:57.294Z,0
2023-05-06T20:24:57.736Z,0
2023-05-06T20:27:57.661Z,0.6666666666666666
2023-05-06T20:30:57.717Z,0
2023-05-06T20:33:57.181Z,0.3333333333333333
2023-05-06T20:36:57.124Z,0
2023-05-06T20:39:57.162Z,0
2023-05-06T20:42:57.864Z,0
2023-05-06T20:45:57.573Z,0
2023-05-06T20:48:57.433Z,0
2023-05-06T20:51:57.362Z,0.3333333333333333
2023-05-06T20:54:57.589Z,0.3333333333333333
2023-05-06T20:57:57.191Z,0
2023-05-06T21:00:57.829Z,0
2023-05-06T21:03:57.162Z,0
2023-05-06T21:06:57.816Z,0
2023-05-06T21:09:57.827Z,0.3333333333333333
2023-05-06T21:12:58.065Z,0
2023-05-06T21:15:57.066Z,0
2023-05-06T21:18:57.076Z,0
2023-05-06T21:21:57.962Z,0.3333333333333333
2023-05-06T21:24:57.214Z,1
2023-05-06T21:27:57.148Z,0
2023-05-06T21:30:57.694Z,0
2023-05-06T21:33:57.733Z,0
2023-05-06T21:36:57.763Z,0
2023-05-06T21:39:57.136Z,0
2023-05-06T21:42:57.608Z,0
2023-05-06T21:45:57.378Z,0.6666666666666666
2023-05-06T21:48:57.565Z,0
2023-05-06T21:51:57.517Z,0
2023-05-06T21:54:57.996Z,0
2023-05-06T21:57:57.734Z,0
2023-05-06T22:00:57.633Z,0
2023-05-06T22:03:57.352Z,0
2023-05-06T22:06:57.193Z,0
2023-05-06T22:09:57.294Z,0
2023-05-06T22:12:57.196Z,0
2023-05-06T22:15:57.253Z,0
2023-05-06T22:18:57.215Z,0
2023-05-06T22:21:57.159Z,0
2023-05-06T22:24:57.156Z,0
2023-05-06T22:27:57.462Z,0
2023-05-06T22:30:57.278Z,0
2023-05-06T22:33:57.496Z,0
2023-05-06T22:36:58.198Z,0
2023-05-06T22:39:56.977Z,0
2023-05-06T22:42:57.392Z,1
2023-05-06T22:45:57.444Z,0.3333333333333333
2023-05-06T22:48:57.301Z,0.6666666666666666
2023-05-06T22:51:56.946Z,0
2023-05-06T22:54:57.673Z,0
2023-05-06T22:57:57.564Z,0
2023-05-06T23:00:57.495Z,0.3333333333333333
2023-05-06T23:03:57.569Z,0
2023-05-06T23:06:57.217Z,0
2023-05-06T23:09:57.257Z,0
2023-05-06T23:12:57.481Z,0
2023-05-06T23:15:57.408Z,0
2023-05-06T23:18:57.618Z,0
2023-05-06T23:21:56.970Z,0
2023-05-06T23:24:56.965Z,0
2023-05-06T23:27:57.049Z,0
2023-05-06T23:31:15.350Z,0
2023-05-06T23:33:57.833Z,0
2023-05-06T23:36:57.104Z,0
2023-05-06T23:39:56.836Z,0.3333333333333333
2023-05-06T23:42:57.729Z,0
2023-05-06T23:45:57.544Z,0
2023-05-06T23:48:56.764Z,0
2023-05-06T23:51:57.627Z,0
2023-05-06T23:54:56.925Z,0
2023-05-06T23:57:57.326Z,0
